createdAt,value
2022-08-31T00:01:01.018Z,19.46
2022-08-31T00:11:02.774Z,19.60
2022-08-31T00:21:05.793Z,19.47
2022-08-31T00:31:07.541Z,19.13
2022-08-31T00:41:11.597Z,19.24
2022-08-31T00:51:18.556Z,19.06
2022-08-31T01:01:22.205Z,18.95
2022-08-31T01:11:26.286Z,19.13
2022-08-31T01:21:52.542Z,18.73
2022-08-31T01:31:55.434Z,18.74
2022-08-31T01:41:57.263Z,18.78
2022-08-31T01:51:58.887Z,18.53
2022-08-31T02:02:01.936Z,18.79
2022-08-31T02:12:04.121Z,18.39
2022-08-31T02:22:06.905Z,18.01
2022-08-31T02:32:08.706Z,17.96
2022-08-31T02:42:21.213Z,18.18
2022-08-31T02:52:24.312Z,17.86
2022-08-31T03:02:32.242Z,17.61
2022-08-31T03:12:35.236Z,17.54
2022-08-31T03:22:37.093Z,17.52
2022-08-31T03:32:39.939Z,17.60
2022-08-31T03:42:42.515Z,17.51
2022-08-31T03:52:50.006Z,17.57
2022-08-31T04:02:53.733Z,17.43
2022-08-31T04:12:56.522Z,17.13
2022-08-31T04:22:58.573Z,17.06
2022-08-31T04:33:02.223Z,17.07
2022-08-31T04:43:04.111Z,17.21
2022-08-31T04:53:05.754Z,17.24
2022-08-31T05:03:09.520Z,17.39
2022-08-31T05:13:13.227Z,17.66
2022-08-31T05:23:36.589Z,17.94
2022-08-31T05:33:42.010Z,18.08
2022-08-31T05:43:43.976Z,18.46
2022-08-31T05:53:46.418Z,18.80
2022-08-31T06:03:51.100Z,19.13
2022-08-31T06:13:55.410Z,19.55
2022-08-31T06:23:58.367Z,19.95
2022-08-31T06:34:04.999Z,20.35
2022-08-31T06:44:09.822Z,20.92
2022-08-31T06:54:29.144Z,21.29
2022-08-31T07:04:38.664Z,21.89
2022-08-31T07:14:40.832Z,22.07
2022-08-31T07:24:46.821Z,22.79
2022-08-31T07:34:57.329Z,23.52
2022-08-31T07:45:02.084Z,24.09
2022-08-31T07:55:09.545Z,24.45
2022-08-31T08:05:21.183Z,24.79
2022-08-31T08:15:30.355Z,25.25
2022-08-31T08:25:35.402Z,25.69
2022-08-31T08:35:38.073Z,25.93
2022-08-31T08:45:42.867Z,26.28
2022-08-31T08:55:44.557Z,27.01
2022-08-31T09:06:09.797Z,27.66
2022-08-31T09:16:41.062Z,28.39
2022-08-31T09:26:58.161Z,29.61
2022-08-31T09:37:16.403Z,30.71
2022-08-31T09:47:52.414Z,31.40
2022-08-31T09:57:57.285Z,30.73
2022-08-31T10:08:04.494Z,31.31
2022-08-31T10:18:29.392Z,30.23
2022-08-31T10:28:42.153Z,32.94
2022-08-31T10:38:49.665Z,33.48
2022-08-31T10:48:58.104Z,33.50
2022-08-31T10:59:10.823Z,32.94
2022-08-31T11:09:39.865Z,36.22
2022-08-31T11:19:51.349Z,32.97
2022-08-31T11:30:02.787Z,36.73
2022-08-31T11:40:11.348Z,32.73
2022-08-31T11:50:39.144Z,38.42
2022-08-31T12:01:03.187Z,42.26
2022-08-31T12:45:42.786Z,38.57
2022-08-31T12:56:17.758Z,36.49
2022-08-31T13:16:46.155Z,36.48
2022-08-31T13:27:16.311Z,33.00
2022-08-31T13:37:25.377Z,33.05
2022-08-31T13:47:48.770Z,33.93
2022-08-31T13:58:03.199Z,41.79
2022-08-31T14:08:18.392Z,45.22
2022-08-31T14:18:43.549Z,42.80
2022-08-31T14:28:50.642Z,35.19
2022-08-31T14:38:54.619Z,32.41
2022-08-31T14:48:57.924Z,36.39
2022-08-31T14:59:12.601Z,37.54
2022-08-31T15:09:17.551Z,37.80
2022-08-31T15:19:19.243Z,32.71
2022-08-31T15:29:24.782Z,30.28
2022-08-31T15:39:32.516Z,30.10
2022-08-31T15:49:37.056Z,28.79
2022-08-31T15:59:41.233Z,28.36
2022-08-31T16:09:46.252Z,27.76
2022-08-31T16:19:48.944Z,27.80
2022-08-31T16:29:51.056Z,27.57
2022-08-31T16:39:52.897Z,27.22
2022-08-31T16:49:54.708Z,26.66
2022-08-31T16:59:57.699Z,26.23
2022-08-31T17:10:07.385Z,25.93
2022-08-31T17:20:09.612Z,25.68
2022-08-31T17:30:11.729Z,25.38
2022-08-31T17:40:16.834Z,25.12
2022-08-31T17:50:21.305Z,24.68
2022-08-31T18:00:28.435Z,24.52
2022-08-31T18:10:30.236Z,24.48
2022-08-31T18:20:32.825Z,24.36
2022-08-31T18:30:41.379Z,24.24
2022-08-31T18:41:02.050Z,24.12
2022-08-31T18:51:19.049Z,24.02
2022-08-31T19:01:22.507Z,24.07
2022-08-31T19:11:26.674Z,23.98
2022-08-31T19:21:33.029Z,23.70
2022-08-31T19:31:41.251Z,23.40
2022-08-31T19:41:51.704Z,23.06
2022-08-31T19:51:58.812Z,22.85
2022-08-31T20:02:05.555Z,22.51
2022-08-31T20:12:07.834Z,22.23
2022-08-31T20:22:09.601Z,22.11
2022-08-31T20:32:13.490Z,22.09
2022-08-31T20:42:16.383Z,21.90
2022-08-31T20:52:20.013Z,21.70
2022-08-31T21:02:22.693Z,21.57
2022-08-31T21:12:25.309Z,21.48
2022-08-31T21:22:27.767Z,21.41
2022-08-31T21:32:29.888Z,21.32
2022-08-31T21:42:38.990Z,21.08
2022-08-31T21:52:40.676Z,20.78
2022-08-31T22:02:45.372Z,20.77
2022-08-31T22:12:47.500Z,20.71
2022-08-31T22:22:49.296Z,20.63
2022-08-31T22:32:51.169Z,20.50
2022-08-31T22:42:54.197Z,20.44
2022-08-31T22:52:55.833Z,19.84
2022-08-31T23:02:58.669Z,19.58
2022-08-31T23:13:00.338Z,19.45
2022-08-31T23:23:05.325Z,18.63
2022-08-31T23:33:07.790Z,17.82
2022-08-31T23:43:11.171Z,17.15
2022-08-31T23:53:14.684Z,16.97
